Kalamita — EMSV — position and weather

sailwx.info

Track history (hours):
 
Tides and Currents Weather Stations Pressure Air Temp Water Temp Dewpoint Dewpoint Depression Visibility Wind Speed Wind Dir Waves Ship Positions

Kalamita

Last reported at 2014-Nov-29 20:29 UTC. Time now 2014-Dec-21 03:13 UTC.
Position N 45°00' E 035°28'.
Warning: this ship's position is 21 days out of date.

Length 55 m; draft 4 m.

Type: Fishing. MMSI: 272440000.

Date/timePositionNaut miles runAvg speedWind from/ knotsBaromVisibWave heightAir tempDewpointWater temp
2014-Nov-29 20:29N 45°00' E 035°28'26 0.7
2014-Nov-28 05:34N 44°44' E 034°59'1110.4
2014-Nov-28 04:32N 44°38' E 034°47'9 9.5
2014-Nov-28 03:34N 44°33' E 034°36'9 9.3
2014-Nov-28 02:34N 44°29' E 034°24'1110.6
2014-Nov-28 01:34N 44°25' E 034°10'36 9.1
2014-Nov-27 21:33N 44°40' E 033°23'1211.6
2014-Nov-27 20:30N 44°52' E 033°27'1 0.5
2014-Nov-27 19:08N 44°52' E 033°27'3 0.2
2014-Nov-27 02:20N 44°49' E 033°28'5 0.8
2014-Nov-26 20:19N 44°44' E 033°30'7 9.2
2014-Nov-26 19:33N 44°37' E 033°30'4 3.5
2014-Nov-26 18:33N 44°37' E 033°35'0 0.0
2014-Nov-26 17:33N 44°37' E 033°35'0 0.0
2014-Nov-26 16:33N 44°37' E 033°35'0 0.0
2014-Nov-26 15:33N 44°37' E 033°35'0 0.0
2014-Nov-26 13:25N 44°37' E 033°35'0 0.0
2014-Nov-26 12:33N 44°37' E 033°35'0 0.0
2014-Nov-26 11:33N 44°37' E 033°35'0 0.0
2014-Nov-26 10:33N 44°37' E 033°35'0 0.0
2014-Nov-26 09:33N 44°37' E 033°35'0 0.0
2014-Nov-26 08:33N 44°37' E 033°35'0 0.0
2014-Nov-26 07:33N 44°37' E 033°35'0 0.0
2014-Nov-26 06:33N 44°37' E 033°35'0 0.0
2014-Nov-26 05:33N 44°37' E 033°35'0 0.0
2014-Nov-25 18:31N 44°37' E 033°35'0 0.0
2014-Nov-25 17:34N 44°37' E 033°35'0 0.0
2014-Nov-25 16:29N 44°37' E 033°35'0 0.0
2014-Nov-25 10:20N 44°37' E 033°35'0 0.0
2014-Nov-25 09:31N 44°37' E 033°35'0 0.0
2014-Nov-25 08:32N 44°37' E 033°35'0 0.0
2014-Nov-25 07:23N 44°37' E 033°35'0 0.0
2014-Nov-25 06:33N 44°37' E 033°35'0 0.0
2014-Nov-25 05:30N 44°37' E 033°35'0 0.0
2014-Nov-25 04:32N 44°37' E 033°35'0 0.0
2014-Nov-25 03:32N 44°37' E 033°35'0 0.0
2014-Nov-25 02:33N 44°37' E 033°35'0 0.0
2014-Nov-25 01:33N 44°37' E 033°35'0 0.0
2014-Nov-25 00:31N 44°37' E 033°35'0 0.0
2014-Nov-24 23:32N 44°37' E 033°35'0 0.0
2014-Nov-24 22:33N 44°37' E 033°35'0 0.0
2014-Nov-24 21:32N 44°37' E 033°35'0 0.0
2014-Nov-24 20:33N 44°37' E 033°35'0 0.0
2014-Nov-24 19:33N 44°37' E 033°35'0 0.0
2014-Nov-24 18:32N 44°37' E 033°35'0 0.0
2014-Nov-24 17:33N 44°37' E 033°35'0 0.0
2014-Nov-24 16:33N 44°37' E 033°35'0 0.0
2014-Nov-24 15:30N 44°37' E 033°35'0 0.0
2014-Nov-24 14:33N 44°37' E 033°35'0 0.0
2014-Nov-24 13:33N 44°37' E 033°35'0 0.0
2014-Nov-24 12:28N 44°37' E 033°35'0 0.0
2014-Nov-24 11:32N 44°37' E 033°35'0 0.0
2014-Nov-24 10:33N 44°37' E 033°35'0 0.0
2014-Nov-24 09:33N 44°37' E 033°35'0 0.0
2014-Nov-24 08:33N 44°37' E 033°35'0 0.0
2014-Nov-24 07:33N 44°37' E 033°35'0 0.0
2014-Nov-24 06:33N 44°37' E 033°35'0 0.0
2014-Nov-24 05:33N 44°37' E 033°35'0 0.0
2014-Nov-24 04:33N 44°37' E 033°35'0 0.0
2014-Nov-24 03:29N 44°37' E 033°35'0 0.0
2014-Nov-24 02:30N 44°37' E 033°35'0 0.0
2014-Nov-24 01:28N 44°37' E 033°35'0 0.0
2014-Nov-24 00:23N 44°37' E 033°35'0 0.0
2014-Nov-23 21:32N 44°37' E 033°35'0 0.0
2014-Nov-23 20:31N 44°37' E 033°35'0 0.0
2014-Nov-23 19:31N 44°37' E 033°35'0 0.0
2014-Nov-23 18:26N 44°37' E 033°35'0 0.0
2014-Nov-23 17:32N 44°37' E 033°35'0 0.0
2014-Nov-23 16:22N 44°37' E 033°35'0 0.0
2014-Nov-23 15:32N 44°37' E 033°35'0 0.0
2014-Nov-23 14:31N 44°37' E 033°35'0 0.0
2014-Nov-23 13:32N 44°37' E 033°35'0 0.0
2014-Nov-23 12:33N 44°37' E 033°35'0 0.0
2014-Nov-23 11:31N 44°37' E 033°35'0 0.0
2014-Nov-23 10:33N 44°37' E 033°35'0 0.0
2014-Nov-23 09:18N 44°37' E 033°35'0 0.0
2014-Nov-23 08:23N 44°37' E 033°35'0 0.0
2014-Nov-23 07:29N 44°37' E 033°35'0 0.0
2014-Nov-23 06:30N 44°37' E 033°35'0 0.0
2014-Nov-23 05:30N 44°37' E 033°35'0 0.0
2014-Nov-23 04:24N 44°37' E 033°35'0 0.0
2014-Nov-23 03:32N 44°37' E 033°35'0 0.0
2014-Nov-23 00:15N 44°37' E 033°35'0 0.0
2014-Nov-22 23:32N 44°37' E 033°35'0 0.0
2014-Nov-22 22:31N 44°37' E 033°35'0 0.0
2014-Nov-22 21:33N 44°37' E 033°35'0 0.0
2014-Nov-22 20:32N 44°37' E 033°35'0 0.0
2014-Nov-22 19:33N 44°37' E 033°35'0 0.0
2014-Nov-22 18:33N 44°37' E 033°35'0 0.0
2014-Nov-22 17:33N 44°37' E 033°35'0 0.0
2014-Nov-22 16:33N 44°37' E 033°35'0 0.0
2014-Nov-22 15:33N 44°37' E 033°35'0 0.0
2014-Nov-22 14:30N 44°37' E 033°35'0 0.0
2014-Nov-22 13:33N 44°37' E 033°35'0 0.0
2014-Nov-22 12:30N 44°37' E 033°35'0 0.0
2014-Nov-22 11:34N 44°37' E 033°35'0 0.0
2014-Nov-22 10:27N 44°37' E 033°35'0 0.0
2014-Nov-22 09:17N 44°37' E 033°35'0 0.0
2014-Nov-22 08:23N 44°37' E 033°35'0 0.0
2014-Nov-22 07:31N 44°37' E 033°35'0 0.0
2014-Nov-22 06:13N 44°37' E 033°35'0 0.0
2014-Nov-22 05:26N 44°37' E 033°35'0 0.0
2014-Nov-22 04:32N 44°37' E 033°35'0 0.0
2014-Nov-22 03:28N 44°37' E 033°35'0 0.0
2014-Nov-22 02:32N 44°37' E 033°35'0 0.0
2014-Nov-22 01:30N 44°37' E 033°35'0 0.0
2014-Nov-22 00:33N 44°37' E 033°35'0 0.0
2014-Nov-21 23:33N 44°37' E 033°35'0 0.0
2014-Nov-21 22:28N 44°37' E 033°35'0 0.0
2014-Nov-21 21:33N 44°37' E 033°35'0 0.0
2014-Nov-21 20:33N 44°37' E 033°35'0 0.0
2014-Nov-21 19:33N 44°37' E 033°35'0 0.0
2014-Nov-21 18:33N 44°37' E 033°35'0 0.0
2014-Nov-21 17:27N 44°37' E 033°35'0 0.0
2014-Nov-21 16:24N 44°37' E 033°35'0 0.0
2014-Nov-21 15:31N 44°37' E 033°35'0 0.0
2014-Nov-21 14:30N 44°37' E 033°35'  
Track history (hours):
 
Tides and Currents Weather Stations Pressure Air Temp Water Temp Dewpoint Dewpoint Depression Visibility Wind Speed Wind Dir Waves Ship Positions

Kalamita

Last reported at 2014-Nov-29 20:29 UTC. Time now 2014-Dec-21 03:13 UTC.
Position N 45°00' E 035°28'.
Warning: this ship's position is 21 days out of date.

Length 55 m; draft 4 m.

Type: Fishing. MMSI: 272440000.

Date/timePositionNaut miles runAvg speedWind from/ knotsBaromVisibWave heightAir tempDewpointWater temp
2014-Nov-29 20:29N 45°00' E 035°28'26 0.7
2014-Nov-28 05:34N 44°44' E 034°59'1110.4
2014-Nov-28 04:32N 44°38' E 034°47'9 9.5
2014-Nov-28 03:34N 44°33' E 034°36'9 9.3
2014-Nov-28 02:34N 44°29' E 034°24'1110.6
2014-Nov-28 01:34N 44°25' E 034°10'36 9.1
2014-Nov-27 21:33N 44°40' E 033°23'1211.6
2014-Nov-27 20:30N 44°52' E 033°27'1 0.5
2014-Nov-27 19:08N 44°52' E 033°27'3 0.2
2014-Nov-27 02:20N 44°49' E 033°28'5 0.8
2014-Nov-26 20:19N 44°44' E 033°30'7 9.2
2014-Nov-26 19:33N 44°37' E 033°30'4 3.5
2014-Nov-26 18:33N 44°37' E 033°35'0 0.0
2014-Nov-26 17:33N 44°37' E 033°35'0 0.0
2014-Nov-26 16:33N 44°37' E 033°35'0 0.0
2014-Nov-26 15:33N 44°37' E 033°35'0 0.0
2014-Nov-26 13:25N 44°37' E 033°35'0 0.0
2014-Nov-26 12:33N 44°37' E 033°35'0 0.0
2014-Nov-26 11:33N 44°37' E 033°35'0 0.0
2014-Nov-26 10:33N 44°37' E 033°35'0 0.0
2014-Nov-26 09:33N 44°37' E 033°35'0 0.0
2014-Nov-26 08:33N 44°37' E 033°35'0 0.0
2014-Nov-26 07:33N 44°37' E 033°35'0 0.0
2014-Nov-26 06:33N 44°37' E 033°35'0 0.0
2014-Nov-26 05:33N 44°37' E 033°35'0 0.0
2014-Nov-25 18:31N 44°37' E 033°35'0 0.0
2014-Nov-25 17:34N 44°37' E 033°35'0 0.0
2014-Nov-25 16:29N 44°37' E 033°35'0 0.0
2014-Nov-25 10:20N 44°37' E 033°35'0 0.0
2014-Nov-25 09:31N 44°37' E 033°35'0 0.0
2014-Nov-25 08:32N 44°37' E 033°35'0 0.0
2014-Nov-25 07:23N 44°37' E 033°35'0 0.0
2014-Nov-25 06:33N 44°37' E 033°35'0 0.0
2014-Nov-25 05:30N 44°37' E 033°35'0 0.0
2014-Nov-25 04:32N 44°37' E 033°35'0 0.0
2014-Nov-25 03:32N 44°37' E 033°35'0 0.0
2014-Nov-25 02:33N 44°37' E 033°35'0 0.0
2014-Nov-25 01:33N 44°37' E 033°35'0 0.0
2014-Nov-25 00:31N 44°37' E 033°35'0 0.0
2014-Nov-24 23:32N 44°37' E 033°35'0 0.0
2014-Nov-24 22:33N 44°37' E 033°35'0 0.0
2014-Nov-24 21:32N 44°37' E 033°35'0 0.0
2014-Nov-24 20:33N 44°37' E 033°35'0 0.0
2014-Nov-24 19:33N 44°37' E 033°35'0 0.0
2014-Nov-24 18:32N 44°37' E 033°35'0 0.0
2014-Nov-24 17:33N 44°37' E 033°35'0 0.0
2014-Nov-24 16:33N 44°37' E 033°35'0 0.0
2014-Nov-24 15:30N 44°37' E 033°35'0 0.0
2014-Nov-24 14:33N 44°37' E 033°35'0 0.0
2014-Nov-24 13:33N 44°37' E 033°35'0 0.0
2014-Nov-24 12:28N 44°37' E 033°35'0 0.0
2014-Nov-24 11:32N 44°37' E 033°35'0 0.0
2014-Nov-24 10:33N 44°37' E 033°35'0 0.0
2014-Nov-24 09:33N 44°37' E 033°35'0 0.0
2014-Nov-24 08:33N 44°37' E 033°35'0 0.0
2014-Nov-24 07:33N 44°37' E 033°35'0 0.0
2014-Nov-24 06:33N 44°37' E 033°35'0 0.0
2014-Nov-24 05:33N 44°37' E 033°35'0 0.0
2014-Nov-24 04:33N 44°37' E 033°35'0 0.0
2014-Nov-24 03:29N 44°37' E 033°35'0 0.0
2014-Nov-24 02:30N 44°37' E 033°35'0 0.0
2014-Nov-24 01:28N 44°37' E 033°35'0 0.0
2014-Nov-24 00:23N 44°37' E 033°35'0 0.0
2014-Nov-23 21:32N 44°37' E 033°35'0 0.0
2014-Nov-23 20:31N 44°37' E 033°35'0 0.0
2014-Nov-23 19:31N 44°37' E 033°35'0 0.0
2014-Nov-23 18:26N 44°37' E 033°35'0 0.0
2014-Nov-23 17:32N 44°37' E 033°35'0 0.0
2014-Nov-23 16:22N 44°37' E 033°35'0 0.0
2014-Nov-23 15:32N 44°37' E 033°35'0 0.0
2014-Nov-23 14:31N 44°37' E 033°35'0 0.0
2014-Nov-23 13:32N 44°37' E 033°35'0 0.0
2014-Nov-23 12:33N 44°37' E 033°35'0 0.0
2014-Nov-23 11:31N 44°37' E 033°35'0 0.0
2014-Nov-23 10:33N 44°37' E 033°35'0 0.0
2014-Nov-23 09:18N 44°37' E 033°35'0 0.0
2014-Nov-23 08:23N 44°37' E 033°35'0 0.0
2014-Nov-23 07:29N 44°37' E 033°35'0 0.0
2014-Nov-23 06:30N 44°37' E 033°35'0 0.0
2014-Nov-23 05:30N 44°37' E 033°35'0 0.0
2014-Nov-23 04:24N 44°37' E 033°35'0 0.0
2014-Nov-23 03:32N 44°37' E 033°35'0 0.0
2014-Nov-23 00:15N 44°37' E 033°35'0 0.0
2014-Nov-22 23:32N 44°37' E 033°35'0 0.0
2014-Nov-22 22:31N 44°37' E 033°35'0 0.0
2014-Nov-22 21:33N 44°37' E 033°35'0 0.0
2014-Nov-22 20:32N 44°37' E 033°35'0 0.0
2014-Nov-22 19:33N 44°37' E 033°35'0 0.0
2014-Nov-22 18:33N 44°37' E 033°35'0 0.0
2014-Nov-22 17:33N 44°37' E 033°35'0 0.0
2014-Nov-22 16:33N 44°37' E 033°35'0 0.0
2014-Nov-22 15:33N 44°37' E 033°35'0 0.0
2014-Nov-22 14:30N 44°37' E 033°35'0 0.0
2014-Nov-22 13:33N 44°37' E 033°35'0 0.0
2014-Nov-22 12:30N 44°37' E 033°35'0 0.0
2014-Nov-22 11:34N 44°37' E 033°35'0 0.0
2014-Nov-22 10:27N 44°37' E 033°35'0 0.0
2014-Nov-22 09:17N 44°37' E 033°35'0 0.0
2014-Nov-22 08:23N 44°37' E 033°35'0 0.0
2014-Nov-22 07:31N 44°37' E 033°35'0 0.0
2014-Nov-22 06:13N 44°37' E 033°35'0 0.0
2014-Nov-22 05:26N 44°37' E 033°35'0 0.0
2014-Nov-22 04:32N 44°37' E 033°35'0 0.0
2014-Nov-22 03:28N 44°37' E 033°35'0 0.0
2014-Nov-22 02:32N 44°37' E 033°35'0 0.0
2014-Nov-22 01:30N 44°37' E 033°35'0 0.0
2014-Nov-22 00:33N 44°37' E 033°35'0 0.0
2014-Nov-21 23:33N 44°37' E 033°35'0 0.0
2014-Nov-21 22:28N 44°37' E 033°35'0 0.0
2014-Nov-21 21:33N 44°37' E 033°35'0 0.0
2014-Nov-21 20:33N 44°37' E 033°35'0 0.0
2014-Nov-21 19:33N 44°37' E 033°35'0 0.0
2014-Nov-21 18:33N 44°37' E 033°35'0 0.0
2014-Nov-21 17:27N 44°37' E 033°35'0 0.0
2014-Nov-21 16:24N 44°37' E 033°35'0 0.0
2014-Nov-21 15:31N 44°37' E 033°35'0 0.0
2014-Nov-21 14:30N 44°37' E 033°35'  

Dump ship's entire track history